Zoarville, Ohio
Current Conditions -  °F | °C
As of 8:53 PM on Wednesday 22 Oct 2014 (Local Time) from KPHD Reporting Station
Broken Clouds Broken Clouds  
Wind Chill: 48°   Ceiling: 3900
Heat Index: 48°   Visibility: 10mi
Dew Point: 42°   Wind: 3mph
Humidity: 80%   Direction: 320°NW
Pressure: 30.23"   Gusts: NA
Location:  40.5975°N, 81.3327°W
Report Text: KPHD 230053Z AUTO 32003KT 10SM BKN039 09/06 A3023 RMK AO2 SLP239 T00890056
Loading
Personal Weather Stations






























Interactive Weather Map
Tropical Storm Tracking
New forecast layout! Learn more

10-Day Weather Forecast

Advertisements
Track Severe Weather on mobile